Time;durP1;ratioP1;P1;durP2;ratioP2;P2;SDS_P1;SDS_P2;PMS_P1;PMS_P2;Temp;Humidity;BMP_temperature;BMP_pressure;BME280_temperature;BME280_humidity;BME280_pressure;Samples;Min_cycle;Max_cycle;Signal;HPM_P1;HPM_P2
2023/05/07 00:00:49;;;;;;;7.32;4.13;;;;;;;14.44;nan;37597.63;4990237;28;20212;-67
2023/05/07 00:03:15;;;;;;;7.95;4.10;;;;;;;14.43;nan;38880.47;4976739;28;20566;-66
2023/05/07 00:05:41;;;;;;;7.00;4.28;;;;;;;14.34;nan;33673.00;4984010;28;20196;-67
2023/05/07 00:08:06;;;;;;;5.38;4.03;;;;;;;14.06;nan;42817.75;4970601;28;20184;-67
2023/05/07 00:10:32;;;;;;;7.50;3.90;;;;;;;14.34;nan;38521.78;4989710;28;20229;-67
2023/05/07 00:12:57;;;;;;;6.03;4.13;;;;;;;14.22;nan;45900.75;4974638;28;20174;-68
2023/05/07 00:15:23;;;;;;;5.07;3.95;;;;;;;14.23;nan;49573.78;4974908;28;20264;-66
2023/05/07 00:17:48;;;;;;;6.15;3.83;;;;;;;14.43;nan;52385.41;4975164;28;20578;-66
2023/05/07 00:20:13;;;;;;;6.28;4.03;;;;;;;14.38;nan;48973.25;4974335;28;20279;-66
2023/05/07 00:22:39;;;;;;;10.02;4.32;;;;;;;14.06;nan;50646.88;4980100;28;20671;-66
2023/05/07 00:25:05;;;;;;;5.88;4.05;;;;;;;14.29;nan;49256.78;4974342;28;20170;-67
2023/05/07 00:27:31;;;;;;;7.13;4.45;;;;;;;14.01;nan;42221.47;4974731;28;20169;-66
2023/05/07 00:29:56;;;;;;;4.95;3.65;;;;;;;13.92;nan;43603.19;4974888;28;20184;-66
2023/05/07 00:32:21;;;;;;;5.07;3.65;;;;;;;14.37;nan;46213.19;4974560;28;20173;-67
2023/05/07 00:34:47;;;;;;;6.22;4.10;;;;;;;14.29;nan;48716.56;4974415;28;20197;-67
2023/05/07 00:37:12;;;;;;;6.88;4.40;;;;;;;13.96;nan;46771.25;4974278;28;20540;-66
2023/05/07 00:39:37;;;;;;;6.80;4.57;;;;;;;14.18;nan;42497.63;4972610;28;20212;-68
2023/05/07 00:42:03;;;;;;;7.50;4.43;;;;;;;14.04;nan;48727.72;4974582;28;20170;-67
2023/05/07 00:44:29;;;;;;;6.05;4.30;;;;;;;14.27;nan;45966.50;4974452;28;20691;-67
2023/05/07 00:46:56;;;;;;;6.13;4.38;;;;;;;14.20;nan;53098.28;4973190;28;20284;-67
2023/05/07 00:49:24;;;;;;;5.57;4.18;;;;;;;14.19;nan;54381.56;4973842;28;20634;-67
2023/05/07 00:51:50;;;;;;;7.07;3.67;;;;;;;13.95;nan;56127.06;4973613;28;20590;-67
2023/05/07 00:54:16;;;;;;;5.80;3.97;;;;;;;14.23;nan;56984.00;4974138;28;20197;-67
2023/05/07 00:56:41;;;;;;;13.32;4.18;;;;;;;14.00;nan;56486.19;4974279;28;20169;-66
2023/05/07 00:59:07;;;;;;;7.63;4.20;;;;;;;14.08;nan;56399.69;4974220;28;20624;-68
2023/05/07 01:01:33;;;;;;;6.45;4.15;;;;;;;13.91;nan;56445.44;4973603;28;20685;-67
2023/05/07 01:03:58;;;;;;;5.20;3.88;;;;;;;14.02;nan;56626.78;4973710;28;20256;-67
2023/05/07 01:06:27;;;;;;;7.40;4.03;;;;;;;13.69;nan;57197.59;4974128;28;20197;-67
2023/05/07 01:08:56;;;;;;;6.57;4.07;;;;;;;13.90;nan;57111.69;4973863;28;20186;-67
2023/05/07 01:11:22;;;;;;;7.35;4.25;;;;;;;13.79;nan;49717.78;4974392;28;20221;-68
2023/05/07 01:13:50;;;;;;;6.00;4.20;;;;;;;13.47;nan;32637.81;4974285;28;20165;-67
2023/05/07 01:16:16;;;;;;;7.13;4.40;;;;;;;13.30;nan;22873.50;4973892;28;20253;-66
2023/05/07 01:18:41;;;;;;;8.02;4.97;;;;;;;13.14;nan;14114.31;4973642;28;20349;-66
2023/05/07 01:21:10;;;;;;;7.18;4.35;;;;;;;13.27;nan;9588.97;4973512;28;20177;-68
2023/05/07 01:23:36;;;;;;;7.78;4.13;;;;;;;13.45;nan;8623.78;4975538;28;20171;-67
2023/05/07 01:26:01;;;;;;;8.25;5.05;;;;;;;13.23;nan;9588.03;4977883;28;20257;-67
2023/05/07 01:28:26;;;;;;;5.57;4.28;;;;;;;13.44;nan;9270.22;4973790;28;20169;-68
2023/05/07 01:30:56;;;;;;;7.13;4.82;;;;;;;13.28;nan;6034.63;4973869;28;20165;-67
2023/05/07 01:33:22;;;;;;;8.50;4.50;;;;;;;12.89;nan;4090.06;4973552;28;20173;-66
2023/05/07 01:35:51;;;;;;;6.85;4.43;;;;;;;12.97;nan;3123.88;4973245;28;20162;-66
2023/05/07 01:38:17;;;;;;;6.30;4.32;;;;;;;13.20;nan;2482.38;4973508;28;20181;-66
2023/05/07 01:40:43;;;;;;;7.75;4.15;;;;;;;13.26;nan;3128.63;4973494;28;20204;-67
2023/05/07 01:43:10;;;;;;;6.88;4.43;;;;;;;13.41;nan;4745.25;4973603;28;20248;-66
2023/05/07 01:45:36;;;;;;;6.35;4.32;;;;;;;13.06;nan;5061.34;4973484;28;20228;-67
2023/05/07 01:48:02;;;;;;;6.43;4.40;;;;;;;13.16;nan;4095.00;4973167;28;20177;-67
2023/05/07 01:50:29;;;;;;;8.45;4.60;;;;;;;12.98;nan;3769.09;4973344;28;20181;-66
2023/05/07 01:52:55;;;;;;;6.97;4.50;;;;;;;13.37;nan;3130.38;4973759;28;20169;-66
2023/05/07 01:55:20;;;;;;;5.88;4.25;;;;;;;13.58;nan;1197.31;4972994;28;20178;-67
2023/05/07 01:57:45;;;;;;;8.15;4.65;;;;;;;13.62;nan;875.25;4972912;28;20703;-67
2023/05/07 02:00:11;;;;;;;7.95;4.53;;;;;;;13.23;nan;225.38;4973048;28;20263;-65
2023/05/07 02:02:37;;;;;;;7.70;4.60;;;;;;;13.43;nan;2485.97;4971569;28;20192;-66
2023/05/07 02:05:03;;;;;;;10.75;5.07;;;;;;;13.58;nan;1520.00;4972686;28;20563;-66
2023/05/07 02:07:29;;;;;;;7.20;4.75;;;;;;;13.57;nan;1842.56;4972925;28;20296;-67
2023/05/07 02:09:55;;;;;;;7.13;4.97;;;;;;;13.48;nan;873.44;4973144;28;20217;-66
2023/05/07 02:12:22;;;;;;;6.95;4.97;;;;;;;13.34;nan;871.63;4973122;28;20189;-67
2023/05/07 02:14:47;;;;;;;9.18;4.63;;;;;;;13.27;nan;-96.50;4972984;28;20256;-66
2023/05/07 02:17:13;;;;;;;8.65;4.85;;;;;;;13.31;nan;-96.16;4972686;28;20625;-66
2023/05/07 02:19:38;;;;;;;8.13;5.50;;;;;;;13.62;nan;6364.88;4972738;28;20692;-69
2023/05/07 02:22:04;;;;;;;9.43;5.45;;;;;;;13.48;nan;5715.63;4973520;28;20548;-67
2023/05/07 02:24:30;;;;;;;9.13;5.50;;;;;;;13.11;nan;6030.88;4973233;28;20545;-67
2023/05/07 02:26:55;;;;;;;9.23;5.93;;;;;;;12.82;nan;3443.84;4976939;28;20173;-68
2023/05/07 02:29:20;;;;;;;10.20;6.25;;;;;;;13.04;nan;3770.16;4974665;28;20556;-66
2023/05/07 02:31:50;;;;;;;11.05;5.57;;;;;;;13.08;nan;5384.66;4973016;28;20173;-66
2023/05/07 02:34:16;;;;;;;9.00;6.28;;;;;;;13.11;nan;5062.34;4972900;28;20629;-66
2023/05/07 02:36:41;;;;;;;8.82;5.55;;;;;;;13.16;nan;4417.75;4973017;28;20166;-66
2023/05/07 02:39:06;;;;;;;7.97;5.80;;;;;;;13.11;nan;6030.88;4972470;28;20197;-67
2023/05/07 02:41:32;;;;;;;11.15;5.55;;;;;;;12.76;nan;5055.50;4973013;28;20646;-67
2023/05/07 02:43:57;;;;;;;8.80;5.57;;;;;;;13.02;nan;4415.13;4972869;28;20169;-67
2023/05/07 02:46:23;;;;;;;8.55;5.72;;;;;;;12.91;nan;2155.44;4972586;28;20188;-66
2023/05/07 02:48:48;;;;;;;8.82;5.50;;;;;;;12.77;nan;542.13;4972666;28;20170;-66
2023/05/07 02:51:14;;;;;;;9.63;5.47;;;;;;;12.82;nan;-745.81;4972932;28;20173;-66
2023/05/07 02:53:39;;;;;;;10.68;5.60;;;;;;;12.76;nan;-1712.44;4972885;28;20170;-67
2023/05/07 02:56:06;;;;;;;7.85;5.13;;;;;;;12.40;nan;-3002.28;4972660;28;20178;-67
2023/05/07 02:58:31;;;;;;;9.23;6.00;;;;;;;12.65;nan;-5895.28;4987670;28;20548;-65
2023/05/07 03:00:57;;;;;;;7.22;5.20;;;;;;;12.43;nan;-6859.63;4972142;28;20232;-67
2023/05/07 03:03:23;;;;;;;8.77;6.10;;;;;;;12.55;nan;-8144.69;4972743;28;20182;-67
2023/05/07 03:05:48;;;;;;;11.70;6.20;;;;;;;12.20;nan;-8786.03;4972703;28;20225;-67
2023/05/07 03:08:14;;;;;;;9.30;5.60;;;;;;;12.30;nan;-9749.25;4972161;28;20261;-66
2023/05/07 03:10:39;;;;;;;9.15;5.78;;;;;;;12.21;nan;-10390.47;4975774;28;20225;-66
2023/05/07 03:13:05;;;;;;;8.52;5.55;;;;;;;12.23;nan;-11032.22;4976160;28;20194;-67
2023/05/07 03:15:30;;;;;;;12.80;5.70;;;;;;;12.08;nan;-11993.06;4975864;28;20657;-67
2023/05/07 03:17:56;;;;;;;10.02;5.97;;;;;;;12.44;nan;-12958.16;4975786;28;20177;-67
2023/05/07 03:20:21;;;;;;;10.27;5.78;;;;;;;12.57;nan;-13600.84;4975943;28;20208;-67
2023/05/07 03:22:47;;;;;;;10.93;5.90;;;;;;;12.67;nan;-13922.66;4975739;28;20251;-70
2023/05/07 03:25:13;;;;;;;10.43;5.60;;;;;;;12.78;nan;-12640.63;4975767;28;20304;-68
2023/05/07 03:27:39;;;;;;;7.22;4.78;;;;;;;13.04;nan;-11679.81;4975611;28;20239;-67
2023/05/07 03:30:06;;;;;;;8.18;5.43;;;;;;;13.63;nan;-8146.72;4979994;28;20189;-66
2023/05/07 03:32:32;;;;;;;9.32;5.82;;;;;;;13.85;nan;-4926.66;4990749;28;20185;-67
2023/05/07 03:34:57;;;;;;;18.60;5.97;;;;;;;13.96;nan;1848.16;4976350;28;20180;-66
2023/05/07 03:37:23;;;;;;;10.10;5.32;;;;;;;14.64;nan;10922.34;4975751;28;20174;-67
2023/05/07 03:39:48;;;;;;;8.95;5.60;;;;;;;15.12;nan;21660.06;4975249;28;20734;-66
2023/05/07 03:42:14;;;;;;;7.45;5.20;;;;;;;15.96;nan;36725.84;4975771;28;20174;-67
2023/05/07 03:44:40;;;;;;;9.90;5.43;;;;;;;16.06;nan;47109.47;4990339;28;20558;-66
2023/05/07 03:47:05;;;;;;;7.47;4.85;;;;;;;16.89;nan;53896.69;4975017;28;20174;-67
2023/05/07 03:49:31;;;;;;;7.30;4.53;;;;;;;17.58;nan;57558.28;4975523;28;20169;-67
2023/05/07 03:51:56;;;;;;;8.30;4.70;;;;;;;18.30;nan;59603.22;4975281;28;20266;-67
2023/05/07 03:54:21;;;;;;;7.93;4.55;;;;;;;18.82;nan;60433.06;4990924;28;20177;-66
2023/05/07 03:56:47;;;;;;;7.30;4.75;;;;;;;19.56;nan;61002.09;4975299;28;20264;-69
2023/05/07 03:59:13;;;;;;;6.15;4.30;;;;;;;20.02;nan;61135.66;4974846;28;20200;-68
2023/05/07 04:01:39;;;;;;;6.07;4.18;;;;;;;20.52;nan;61306.13;4974982;28;20174;-67
2023/05/07 04:04:04;;;;;;;5.53;4.00;;;;;;;20.85;nan;61492.84;4975582;28;20179;-68
2023/05/07 04:06:30;;;;;;;7.03;4.30;;;;;;;21.49;nan;61622.44;4975080;28;20636;-67
2023/05/07 04:08:56;;;;;;;7.60;4.65;;;;;;;21.89;nan;61697.81;4974934;28;20649;-67
2023/05/07 04:11:21;;;;;;;9.45;4.65;;;;;;;22.31;nan;61800.13;4989531;28;20316;-66
2023/05/07 04:13:47;;;;;;;8.18;4.85;;;;;;;22.29;nan;61870.75;4974647;28;20239;-68
2023/05/07 04:16:12;;;;;;;8.65;5.10;;;;;;;22.52;nan;61927.53;4974619;28;20704;-67
2023/05/07 04:18:38;;;;;;;8.15;4.57;;;;;;;21.97;nan;61870.81;4990307;28;20180;-67
2023/05/07 04:21:03;;;;;;;7.55;4.47;;;;;;;21.79;nan;61811.91;4974813;28;20205;-68
2023/05/07 04:23:29;;;;;;;8.73;4.70;;;;;;;20.58;nan;61623.84;4974842;28;20264;-67
2023/05/07 04:25:55;;;;;;;10.48;5.05;;;;;;;20.82;nan;61708.16;4974463;28;20294;-68
2023/05/07 04:28:20;;;;;;;7.10;4.78;;;;;;;20.85;nan;61724.00;4974497;28;20180;-67
2023/05/07 04:30:46;;;;;;;7.05;4.53;;;;;;;20.43;nan;61664.53;4974397;28;20620;-67
2023/05/07 04:33:12;;;;;;;6.90;4.50;;;;;;;20.36;nan;61666.97;4980017;28;20232;-68
2023/05/07 04:35:37;;;;;;;7.20;4.40;;;;;;;20.16;nan;61691.53;4975004;28;20571;-67
2023/05/07 04:38:03;;;;;;;6.45;4.70;;;;;;;20.34;nan;61716.03;4974344;28;20188;-68
2023/05/07 04:40:28;;;;;;;6.97;4.85;;;;;;;19.78;nan;61838.28;4974312;28;20240;-67
2023/05/07 04:42:54;;;;;;;8.85;5.47;;;;;;;19.35;nan;61613.78;4974215;28;20200;-67
2023/05/07 04:45:21;;;;;;;8.20;5.38;;;;;;;19.48;nan;61583.34;4973943;28;20208;-67
2023/05/07 04:47:46;;;;;;;8.60;5.30;;;;;;;18.16;nan;61438.72;4973932;28;20627;-66
2023/05/07 04:50:11;;;;;;;8.13;4.65;;;;;;;18.90;nan;61526.53;4974566;28;20256;-66
2023/05/07 04:52:37;;;;;;;8.38;4.97;;;;;;;18.77;nan;61511.81;4973985;28;20176;-67
2023/05/07 04:55:02;;;;;;;9.60;5.18;;;;;;;18.79;nan;61532.19;4988900;28;20269;-68
2023/05/07 04:57:28;;;;;;;7.78;4.60;;;;;;;18.59;nan;61522.50;4974141;28;20183;-66
2023/05/07 04:59:54;;;;;;;9.88;5.35;;;;;;;18.92;nan;61567.63;4973787;28;20676;-67
2023/05/07 05:02:19;;;;;;;7.63;4.95;;;;;;;19.10;nan;61577.13;4973946;28;20174;-68
2023/05/07 05:04:44;;;;;;;7.90;4.88;;;;;;;18.69;nan;61511.09;4973931;28;20584;-67
2023/05/07 05:07:10;;;;;;;8.65;5.15;;;;;;;19.05;nan;61592.16;4973831;28;20169;-67
2023/05/07 05:09:35;;;;;;;9.88;5.25;;;;;;;18.38;nan;61481.72;4973589;28;20173;-68
2023/05/07 05:12:01;;;;;;;7.63;5.15;;;;;;;18.25;nan;61671.31;4973880;28;20169;-67
2023/05/07 05:14:26;;;;;;;8.05;5.00;;;;;;;18.11;nan;61482.19;4973612;28;20232;-67
2023/05/07 05:16:51;;;;;;;7.70;4.50;;;;;;;17.85;nan;61395.91;4973690;28;20211;-67
2023/05/07 05:19:17;;;;;;;8.75;5.18;;;;;;;17.31;nan;61359.22;4973542;28;20241;-68
2023/05/07 05:21:42;;;;;;;8.20;4.50;;;;;;;17.82;nan;61402.84;4973440;28;20260;-67
2023/05/07 05:24:08;;;;;;;7.40;5.15;;;;;;;17.64;nan;61393.97;4973860;28;20566;-68
2023/05/07 05:26:34;;;;;;;8.02;4.85;;;;;;;17.23;nan;61296.53;4973711;28;20173;-68
2023/05/07 05:28:59;;;;;;;8.48;5.03;;;;;;;17.03;nan;61284.25;4987839;28;20181;-67
2023/05/07 05:31:25;;;;;;;8.45;5.13;;;;;;;17.43;nan;61374.81;4973074;28;20212;-67
2023/05/07 05:33:50;;;;;;;8.52;5.10;;;;;;;17.19;nan;61309.53;4973867;28;20633;-66
2023/05/07 05:36:16;;;;;;;7.82;5.05;;;;;;;16.81;nan;61238.78;4979452;28;20174;-67
2023/05/07 05:38:41;;;;;;;11.02;7.13;;;;;;;17.29;nan;61323.41;4972325;28;20260;-66
2023/05/07 05:41:07;;;;;;;7.15;4.72;;;;;;;17.34;nan;61303.22;4973117;28;20301;-68
2023/05/07 05:43:32;;;;;;;8.48;4.90;;;;;;;17.23;nan;61332.69;4971741;28;20173;-67
2023/05/07 05:45:58;;;;;;;7.57;4.80;;;;;;;17.63;nan;61392.28;4973841;28;20165;-68
2023/05/07 05:48:23;;;;;;;7.88;4.78;;;;;;;17.57;nan;61437.69;4973219;28;20173;-67
2023/05/07 05:50:49;;;;;;;9.30;5.35;;;;;;;17.58;nan;61474.41;4973597;28;20180;-67
2023/05/07 05:53:15;;;;;;;6.63;4.63;;;;;;;16.99;nan;61393.31;4973325;28;20184;-67
2023/05/07 05:55:41;;;;;;;8.13;5.22;;;;;;;16.81;nan;61341.41;4973117;28;20177;-67
2023/05/07 05:58:07;;;;;;;7.63;4.70;;;;;;;17.17;nan;61380.09;4972888;28;20220;-66
2023/05/07 06:00:32;;;;;;;8.43;4.78;;;;;;;17.55;nan;61425.09;4973125;28;20240;-68
2023/05/07 06:02:57;;;;;;;12.27;5.22;;;;;;;17.80;nan;61454.88;4973138;28;20177;-67
2023/05/07 06:05:23;;;;;;;8.77;5.47;;;;;;;17.87;nan;61498.97;4972972;28;20672;-68
2023/05/07 06:07:48;;;;;;;9.45;4.70;;;;;;;17.90;nan;61469.31;4973038;28;20560;-67
2023/05/07 06:10:14;;;;;;;6.47;4.25;;;;;;;18.49;nan;61556.28;4972857;28;20252;-68
2023/05/07 06:12:39;;;;;;;7.68;4.90;;;;;;;18.39;nan;61513.91;4972846;28;20200;-67
2023/05/07 06:15:05;;;;;;;9.32;4.95;;;;;;;18.41;nan;61518.75;4973107;28;20189;-68
2023/05/07 06:17:31;;;;;;;7.18;4.47;;;;;;;18.56;nan;61544.97;4973214;28;20169;-68
2023/05/07 06:19:56;;;;;;;7.75;4.60;;;;;;;18.82;nan;61585.34;4972915;28;20263;-66
2023/05/07 06:22:22;;;;;;;8.45;4.88;;;;;;;18.42;nan;61542.59;4971623;28;20670;-68
2023/05/07 06:24:47;;;;;;;7.07;4.43;;;;;;;18.01;nan;61532.91;4972988;28;20177;-69
2023/05/07 06:27:13;;;;;;;6.75;4.35;;;;;;;18.06;nan;61484.88;4972831;28;20480;-69
2023/05/07 06:29:38;;;;;;;10.57;4.90;;;;;;;18.29;nan;61520.13;4972470;28;20170;-68
2023/05/07 06:32:11;;;;;;;7.63;4.55;;;;;;;18.21;nan;61534.34;4988396;28;20566;-67
2023/05/07 06:34:37;;;;;;;7.65;4.85;;;;;;;18.48;nan;61564.91;4972846;28;20165;-66
2023/05/07 06:37:02;;;;;;;6.88;4.50;;;;;;;18.35;nan;61519.16;4972716;28;20169;-67
2023/05/07 06:39:28;;;;;;;10.25;4.95;;;;;;;18.52;nan;61562.25;4979141;28;20247;-68
2023/05/07 06:41:53;;;;;;;7.03;4.70;;;;;;;18.47;nan;61460.28;4972877;28;20652;-67
2023/05/07 06:44:19;;;;;;;6.00;4.32;;;;;;;18.70;nan;61555.66;4974647;28;20301;-68
2023/05/07 06:46:45;;;;;;;6.75;4.50;;;;;;;18.90;nan;61609.38;4976942;28;20177;-67
2023/05/07 06:49:10;;;;;;;8.80;4.85;;;;;;;19.29;nan;61643.22;4976468;28;20173;-69
2023/05/07 06:51:36;;;;;;;7.30;4.60;;;;;;;19.32;nan;61653.84;4976503;28;20183;-67
2023/05/07 06:54:02;;;;;;;6.65;4.00;;;;;;;19.58;nan;61680.19;4976673;28;20173;-68
2023/05/07 06:56:27;;;;;;;5.35;3.97;;;;;;;19.43;nan;61674.09;4976177;28;20220;-68
2023/05/07 06:58:52;;;;;;;6.65;4.57;;;;;;;19.92;nan;61733.78;4976317;28;20182;-68
2023/05/07 07:01:18;;;;;;;7.10;4.13;;;;;;;19.95;nan;61771.44;4976483;28;20201;-68
2023/05/07 07:03:43;;;;;;;6.75;4.05;;;;;;;19.81;nan;61688.13;4976239;28;20176;-68
2023/05/07 07:06:08;;;;;;;7.50;4.68;;;;;;;19.85;nan;61718.59;4976040;28;20178;-68
2023/05/07 07:08:34;;;;;;;6.20;4.07;;;;;;;19.79;nan;61717.53;4976028;28;20641;-67
2023/05/07 07:11:00;;;;;;;7.82;4.28;;;;;;;19.83;nan;61711.72;4975685;28;20225;-68
2023/05/07 07:13:25;;;;;;;7.43;4.45;;;;;;;20.41;nan;61778.47;4976020;28;20188;-68
2023/05/07 07:15:51;;;;;;;9.23;5.22;;;;;;;20.13;nan;61739.44;4976181;28;20207;-69
2023/05/07 07:18:17;;;;;;;7.38;4.90;;;;;;;20.43;nan;61757.38;4976067;28;20189;-66
2023/05/07 07:20:44;;;;;;;7.85;4.75;;;;;;;20.38;nan;61788.63;4976156;28;20215;-68
2023/05/07 07:23:09;;;;;;;6.28;4.25;;;;;;;20.63;nan;61834.59;4974585;28;20559;-68
2023/05/07 07:25:35;;;;;;;5.38;4.00;;;;;;;20.83;nan;61839.16;4975534;28;20173;-67
2023/05/07 07:28:00;;;;;;;5.35;4.03;;;;;;;20.70;nan;61905.47;4975695;28;20177;-67
2023/05/07 07:30:26;;;;;;;5.45;4.03;;;;;;;20.69;nan;61831.03;4975685;28;20553;-67
2023/05/07 07:32:52;;;;;;;7.32;4.28;;;;;;;20.99;nan;61849.00;4975592;28;20497;-67
2023/05/07 07:35:17;;;;;;;7.13;4.50;;;;;;;20.11;nan;61758.50;4975663;28;20228;-68
2023/05/07 07:37:43;;;;;;;5.22;3.90;;;;;;;20.50;nan;61804.25;4975632;28;20177;-68
2023/05/07 07:40:09;;;;;;;5.30;4.00;;;;;;;20.74;nan;61810.75;4975167;28;20189;-69
2023/05/07 07:42:34;;;;;;;6.85;4.30;;;;;;;20.81;nan;61831.69;4981398;28;20179;-68
2023/05/07 07:45:00;;;;;;;7.50;4.63;;;;;;;20.54;nan;61827.53;4975821;28;20269;-69
2023/05/07 07:47:25;;;;;;;6.55;4.70;;;;;;;20.46;nan;61818.47;4975431;28;20177;-68
2023/05/07 07:49:50;;;;;;;6.65;4.50;;;;;;;20.17;nan;61747.16;4975606;28;20252;-68
2023/05/07 07:52:16;;;;;;;8.63;4.75;;;;;;;20.48;nan;61817.56;4973887;28;20200;-68
2023/05/07 07:54:41;;;;;;;7.05;4.50;;;;;;;20.26;nan;61739.19;4974926;28;20201;-68
2023/05/07 07:57:06;;;;;;;9.18;4.90;;;;;;;20.09;nan;61751.03;4975295;28;20209;-67
2023/05/07 07:59:32;;;;;;;7.15;4.88;;;;;;;19.91;nan;61766.91;4975646;28;20200;-66
2023/05/07 08:01:57;;;;;;;9.02;5.25;;;;;;;19.94;nan;61708.06;4975200;28;20166;-67
2023/05/07 08:04:23;;;;;;;7.60;4.82;;;;;;;19.84;nan;61699.88;4975422;28;20188;-68
2023/05/07 08:06:48;;;;;;;6.95;4.50;;;;;;;20.25;nan;61753.63;4975167;28;20173;-68
2023/05/07 08:09:14;;;;;;;8.52;5.32;;;;;;;20.65;nan;61816.13;4975165;28;20213;-67
2023/05/07 08:11:39;;;;;;;10.30;5.35;;;;;;;20.54;nan;61798.41;4975297;28;20312;-67
2023/05/07 08:14:05;;;;;;;8.20;4.68;;;;;;;20.46;nan;61812.69;4974415;28;20302;-68
2023/05/07 08:16:30;;;;;;;6.82;4.40;;;;;;;20.26;nan;61803.50;4975241;28;20174;-67
2023/05/07 08:18:56;;;;;;;8.65;5.10;;;;;;;20.36;nan;61816.91;4975002;28;20613;-68
2023/05/07 08:21:22;;;;;;;6.68;4.35;;;;;;;20.60;nan;61823.41;4975208;28;20672;-68
2023/05/07 08:23:48;;;;;;;7.97;4.18;;;;;;;20.54;nan;61816.59;4975136;28;20662;-70
2023/05/07 08:26:13;;;;;;;7.05;4.57;;;;;;;20.80;nan;61835.19;4974428;28;20197;-69
2023/05/07 08:28:39;;;;;;;5.65;3.80;;;;;;;20.79;nan;61904.75;4974025;28;20177;-68
2023/05/07 08:31:05;;;;;;;6.63;4.43;;;;;;;21.14;nan;61905.59;4974589;28;20175;-69
2023/05/07 08:33:31;;;;;;;7.07;4.30;;;;;;;21.30;nan;61865.47;4974523;28;20232;-68
2023/05/07 08:35:56;;;;;;;5.90;3.85;;;;;;;21.44;nan;61915.75;4974647;28;20587;-67
2023/05/07 08:38:22;;;;;;;7.35;4.00;;;;;;;21.51;nan;61928.34;4974548;28;20260;-67
2023/05/07 08:40:47;;;;;;;5.72;4.03;;;;;;;21.94;nan;62000.69;4973849;28;20209;-67
2023/05/07 08:43:14;;;;;;;5.18;3.50;;;;;;;22.01;nan;61969.63;4980589;28;20200;-70
2023/05/07 08:45:40;;;;;;;4.60;3.63;;;;;;;21.78;nan;61961.09;4974334;28;20227;-68
2023/05/07 08:48:14;;;;;;;5.38;3.80;;;;;;;21.91;nan;61950.44;4974036;28;20233;-70
2023/05/07 08:50:39;;;;;;;5.43;3.53;;;;;;;21.96;nan;62111.69;4974243;28;20169;-67
2023/05/07 08:53:05;;;;;;;5.05;3.58;;;;;;;22.26;nan;62015.16;4973890;28;20177;-67
2023/05/07 08:55:31;;;;;;;5.88;3.42;;;;;;;22.09;nan;62006.22;4974527;28;20265;-68
2023/05/07 08:57:56;;;;;;;6.45;4.10;;;;;;;21.20;nan;62062.59;4974085;28;20212;-68
2023/05/07 09:00:22;;;;;;;6.18;4.10;;;;;;;21.48;nan;61906.72;4973753;28;20208;-67
2023/05/07 09:02:47;;;;;;;4.65;3.35;;;;;;;21.71;nan;61922.47;4974419;28;20177;-69
2023/05/07 09:05:13;;;;;;;4.85;3.42;;;;;;;21.91;nan;61981.66;4974213;28;20185;-68
2023/05/07 09:07:38;;;;;;;3.97;3.00;;;;;;;22.43;nan;62006.44;4972939;28;20273;-68
2023/05/07 09:10:05;;;;;;;3.53;2.90;;;;;;;22.24;nan;62015.50;4973380;28;20316;-67
2023/05/07 09:12:30;;;;;;;4.38;3.08;;;;;;;22.41;nan;62030.19;4988751;28;20294;-68
2023/05/07 09:14:56;;;;;;;4.65;2.97;;;;;;;22.59;nan;62068.34;4975980;28;20224;-69
2023/05/07 09:17:22;;;;;;;8.57;2.95;;;;;;;22.36;nan;62021.34;4975709;28;20185;-68
2023/05/07 09:19:47;;;;;;;4.40;2.95;;;;;;;22.33;nan;62054.38;4973759;28;20228;-68
2023/05/07 09:22:13;;;;;;;6.35;2.70;;;;;;;22.64;nan;62061.03;4973620;28;20185;-69
2023/05/07 09:24:39;;;;;;;4.55;2.50;;;;;;;21.77;nan;61986.53;4975406;28;20272;-68
2023/05/07 09:27:06;;;;;;;2.55;2.20;;;;;;;21.72;nan;61959.47;4973615;28;20645;-68
2023/05/07 09:29:37;;;;;;;3.42;2.38;;;;;;;21.37;nan;61907.78;4974123;28;20692;-67
2023/05/07 09:32:06;;;;;;;2.92;2.55;;;;;;;21.77;nan;61999.53;4973882;28;20185;-68
2023/05/07 09:34:32;;;;;;;3.08;2.60;;;;;;;22.02;nan;62019.63;4975786;28;20266;-68
2023/05/07 09:37:02;;;;;;;4.18;2.70;;;;;;;22.33;nan;62038.75;4973544;28;20325;-69
2023/05/07 09:39:40;;;;;;;3.78;2.50;;;;;;;22.61;nan;62005.50;4975248;28;20228;-69
2023/05/07 09:42:06;;;;;;;3.72;2.65;;;;;;;22.58;nan;62056.22;4975542;28;20577;-71
2023/05/07 09:44:32;;;;;;;3.60;2.42;;;;;;;22.28;nan;62014.84;4973630;28;20192;-68
2023/05/07 09:47:00;;;;;;;3.50;2.70;;;;;;;22.20;nan;62161.91;4975865;28;20641;-68
2023/05/07 09:49:30;;;;;;;5.97;3.40;;;;;;;22.65;nan;62054.34;4990112;28;20232;-67
2023/05/07 09:51:56;;;;;;;3.53;2.67;;;;;;;22.17;nan;61963.84;4973635;28;20186;-67
2023/05/07 09:54:22;;;;;;;7.75;3.97;;;;;;;22.40;nan;62025.88;4973494;28;20180;-68
2023/05/07 09:56:48;;;;;;;3.63;2.78;;;;;;;21.95;nan;61991.44;4973292;28;20268;-68
2023/05/07 09:59:15;;;;;;;5.45;2.95;;;;;;;21.95;nan;61954.44;4973303;28;20193;-69
2023/05/07 10:01:43;;;;;;;3.45;2.72;;;;;;;22.29;nan;62209.19;4973230;28;20197;-68
2023/05/07 10:04:09;;;;;;;2.97;2.58;;;;;;;21.72;nan;62003.69;4971868;28;20220;-67
2023/05/07 10:06:36;;;;;;;3.88;2.70;;;;;;;21.69;nan;61950.84;4973156;28;20569;-69
2023/05/07 10:09:03;;;;;;;5.63;2.72;;;;;;;21.96;nan;61976.94;4973391;28;20180;-69
2023/05/07 10:11:28;;;;;;;3.53;2.97;;;;;;;21.98;nan;62025.50;4972807;28;20233;-69
2023/05/07 10:13:54;;;;;;;5.72;2.90;;;;;;;22.40;nan;62067.53;4973128;28;20244;-68
2023/05/07 10:16:21;;;;;;;4.20;3.20;;;;;;;22.53;nan;62027.09;4972712;28;20200;-70
2023/05/07 10:18:49;;;;;;;4.72;3.20;;;;;;;22.89;nan;62081.69;4975348;28;20184;-69
2023/05/07 10:21:23;;;;;;;4.25;3.17;;;;;;;22.96;nan;62094.31;4976840;28;20210;-69
2023/05/07 10:23:52;;;;;;;3.67;3.00;;;;;;;22.89;nan;62084.31;4978913;28;20196;-68
2023/05/07 10:26:21;;;;;;;3.38;2.60;;;;;;;23.18;nan;62103.16;4976890;28;20205;-67
2023/05/07 10:28:51;;;;;;;3.88;2.75;;;;;;;23.25;nan;62100.72;4976820;28;20204;-68
2023/05/07 10:31:28;;;;;;;3.60;2.67;;;;;;;23.22;nan;62129.16;4976500;28;20675;-69
2023/05/07 10:33:56;;;;;;;4.05;2.60;;;;;;;23.15;nan;62131.63;4976824;28;20177;-69
2023/05/07 10:36:23;;;;;;;4.22;3.00;;;;;;;23.06;nan;62157.84;4977187;28;20181;-68
2023/05/07 10:38:49;;;;;;;3.80;3.10;;;;;;;22.22;nan;62232.44;4976376;28;20169;-68
2023/05/07 10:41:16;;;;;;;3.83;3.05;;;;;;;22.00;nan;62004.94;4976591;28;20208;-68
2023/05/07 10:43:44;;;;;;;3.30;2.65;;;;;;;22.27;nan;62259.00;4976347;28;20176;-68
2023/05/07 10:46:11;;;;;;;3.75;2.72;;;;;;;22.62;nan;62065.97;4982619;28;20668;-67
2023/05/07 10:49:02;;;;;;;8.48;2.85;;;;;;;23.24;nan;62156.94;4976866;28;20173;-67
2023/05/07 10:51:29;;;;;;;3.38;2.88;;;;;;;23.24;nan;62128.25;4976334;28;20544;-68
2023/05/07 10:54:09;;;;;;;4.32;2.65;;;;;;;23.61;nan;62109.88;4991549;28;20599;-68
2023/05/07 10:56:37;;;;;;;3.63;2.63;;;;;;;23.62;nan;62131.88;4976581;28;20212;-68
2023/05/07 10:59:23;;;;;;;5.18;2.92;;;;;;;23.49;nan;62132.72;4976143;28;20177;-69
2023/05/07 11:01:57;;;;;;;3.70;2.72;;;;;;;23.78;nan;62220.56;4991225;28;20205;-68
2023/05/07 11:04:27;;;;;;;3.25;2.50;;;;;;;23.70;nan;62161.88;4976192;28;20174;-67
2023/05/07 11:07:12;;;;;;;3.30;2.55;;;;;;;23.58;nan;62116.91;4976491;28;20170;-70
2023/05/07 11:09:52;;;;;;;2.85;2.40;;;;;;;23.81;nan;62192.13;4975827;28;20736;-68
2023/05/07 11:12:36;;;;;;;2.83;2.50;;;;;;;23.90;nan;62173.66;4976195;28;20185;-68
2023/05/07 11:15:06;;;;;;;4.13;3.08;;;;;;;23.61;nan;62222.63;4975891;28;20196;-68
2023/05/07 11:17:34;;;;;;;3.20;2.72;;;;;;;23.29;nan;62142.34;4976165;28;20649;-68
2023/05/07 11:20:00;;;;;;;4.75;3.53;;;;;;;23.67;nan;62146.00;4975807;28;20205;-67
2023/05/07 11:22:32;;;;;;;3.85;2.78;;;;;;;23.87;nan;62196.91;4975569;28;20177;-68
2023/05/07 11:25:02;;;;;;;5.18;2.50;;;;;;;23.84;nan;62221.63;4975863;28;20204;-68
2023/05/07 11:27:29;;;;;;;3.58;2.38;;;;;;;24.39;nan;62271.34;4975681;28;20197;-68
2023/05/07 11:29:55;;;;;;;4.22;3.10;;;;;;;24.48;nan;62312.97;4975118;28;20182;-67
2023/05/07 11:32:28;;;;;;;2.67;2.22;;;;;;;23.94;nan;62228.41;4975933;28;20184;-69
2023/05/07 11:34:55;;;;;;;3.85;2.90;;;;;;;24.32;nan;62268.03;4975968;28;20248;-68
2023/05/07 11:37:22;;;;;;;3.97;2.53;;;;;;;24.07;nan;62388.88;4975540;28;20181;-67
2023/05/07 11:39:48;;;;;;;3.17;2.35;;;;;;;23.76;nan;62181.78;4975057;28;20209;-69
2023/05/07 11:42:28;;;;;;;3.55;2.45;;;;;;;23.81;nan;62187.47;4975998;28;20508;-68
2023/05/07 11:44:54;;;;;;;4.18;2.80;;;;;;;23.46;nan;62158.56;4975432;28;20176;-68
2023/05/07 11:47:20;;;;;;;3.42;2.45;;;;;;;23.29;nan;62084.97;4979529;28;20178;-69